createdAt,value
2019-05-22T00:01:33.666Z,23.85
2019-05-22T00:04:28.659Z,23.60
2019-05-22T00:07:00.956Z,22.05
2019-05-22T00:09:37.661Z,25.17
2019-05-22T00:12:10.996Z,25.02
2019-05-22T00:14:40.598Z,24.82
2019-05-22T00:17:10.170Z,23.95
2019-05-22T00:19:41.737Z,25.45
2019-05-22T00:22:15.511Z,25.45
2019-05-22T00:24:46.586Z,25.05
2019-05-22T00:27:17.430Z,26.23
2019-05-22T00:29:49.485Z,24.23
2019-05-22T00:32:30.432Z,23.80
2019-05-22T00:35:00.752Z,26.65
2019-05-22T00:37:29.569Z,25.32
2019-05-22T00:39:59.867Z,25.27
2019-05-22T00:42:31.572Z,26.40
2019-05-22T00:45:01.919Z,26.40
2019-05-22T00:47:33.123Z,24.80
2019-05-22T00:50:07.790Z,27.77
2019-05-22T00:52:49.879Z,25.50
2019-05-22T00:55:52.042Z,25.97
2019-05-22T00:58:33.066Z,26.62
2019-05-22T01:01:29.886Z,25.40
2019-05-22T01:04:01.201Z,26.97
2019-05-22T01:06:32.523Z,27.02
2019-05-22T01:09:07.159Z,27.00
2019-05-22T01:11:38.884Z,29.07
2019-05-22T01:14:09.167Z,27.60
2019-05-22T01:16:39.134Z,27.62
2019-05-22T01:19:10.132Z,29.60
2019-05-22T01:21:39.737Z,30.20
2019-05-22T01:24:09.886Z,28.50
2019-05-22T01:26:41.085Z,28.40
2019-05-22T01:29:10.990Z,30.32
2019-05-22T01:31:44.781Z,28.52
2019-05-22T01:34:20.088Z,29.20
2019-05-22T01:37:04.342Z,27.90
2019-05-22T01:39:47.024Z,28.23
2019-05-22T01:42:22.529Z,28.25
2019-05-22T01:45:04.660Z,26.73
2019-05-22T01:47:42.811Z,28.85
2019-05-22T01:50:18.022Z,27.40
2019-05-22T01:52:48.803Z,28.17
2019-05-22T01:55:20.215Z,26.87
2019-05-22T01:57:52.508Z,28.17
2019-05-22T02:00:21.055Z,27.55
2019-05-22T02:02:50.960Z,27.62
2019-05-22T02:05:20.417Z,28.05
2019-05-22T02:07:50.350Z,27.27
2019-05-22T02:10:25.293Z,27.00
2019-05-22T02:12:58.730Z,28.17
2019-05-22T02:15:30.052Z,27.75
2019-05-22T02:18:02.004Z,27.98
2019-05-22T02:20:31.633Z,27.65
2019-05-22T02:23:00.106Z,27.17
2019-05-22T02:25:29.895Z,26.42
2019-05-22T02:28:00.065Z,27.95
2019-05-22T02:30:30.037Z,28.52
2019-05-22T02:33:00.851Z,27.37
2019-05-22T02:35:30.211Z,29.87
2019-05-22T02:37:58.164Z,27.73
2019-05-22T02:40:32.238Z,27.65
2019-05-22T02:43:02.877Z,26.17
2019-05-22T02:45:31.870Z,29.52
2019-05-22T02:48:01.567Z,28.85
2019-05-22T02:50:33.742Z,28.90
2019-05-22T02:53:05.143Z,27.73
2019-05-22T02:55:35.032Z,28.98
2019-05-22T02:58:05.393Z,26.90
2019-05-22T03:00:47.135Z,27.87
2019-05-22T03:03:17.136Z,27.65
2019-05-22T03:05:45.650Z,26.30
2019-05-22T03:08:13.971Z,25.48
2019-05-22T03:10:42.825Z,26.30
2019-05-22T03:13:12.232Z,28.87
2019-05-22T03:15:41.614Z,28.87
2019-05-22T03:18:12.396Z,28.60
2019-05-22T03:20:42.928Z,27.60
2019-05-22T03:23:34.987Z,26.65
2019-05-22T03:26:07.610Z,25.77
2019-05-22T03:28:37.542Z,26.57
2019-05-22T03:31:06.989Z,28.75
2019-05-22T03:33:38.046Z,27.45
2019-05-22T03:36:09.039Z,27.45
2019-05-22T03:38:39.736Z,27.32
2019-05-22T03:41:10.353Z,27.10
2019-05-22T03:43:43.386Z,29.37
2019-05-22T03:46:33.910Z,28.15
2019-05-22T03:49:04.988Z,29.35
2019-05-22T03:51:35.057Z,28.42
2019-05-22T03:54:05.084Z,28.40
2019-05-22T03:56:38.835Z,25.88
2019-05-22T03:59:08.253Z,27.62
2019-05-22T04:01:37.036Z,27.60
2019-05-22T04:04:06.813Z,27.90
2019-05-22T04:06:36.466Z,26.75
2019-05-22T04:09:26.246Z,26.02
2019-05-22T04:11:55.292Z,25.60
2019-05-22T04:14:32.372Z,28.38
2019-05-22T04:17:01.839Z,26.40
2019-05-22T04:19:47.320Z,26.02
2019-05-22T04:22:00.192Z,25.60
2019-05-22T04:24:29.436Z,25.85
2019-05-22T04:26:58.005Z,25.77
2019-05-22T04:29:27.654Z,26.80
2019-05-22T04:31:59.724Z,27.70
2019-05-22T04:34:30.850Z,25.35
2019-05-22T04:37:00.499Z,27.00
2019-05-22T04:39:31.408Z,25.35
2019-05-22T04:42:01.194Z,25.65
2019-05-22T04:44:29.696Z,26.87
2019-05-22T04:46:59.896Z,24.75
2019-05-22T04:49:28.935Z,26.70
2019-05-22T04:51:57.182Z,26.90
2019-05-22T04:54:25.030Z,26.30
2019-05-22T04:56:52.886Z,26.10
2019-05-22T04:59:20.787Z,27.05
2019-05-22T05:01:49.432Z,26.52
2019-05-22T05:04:18.005Z,27.17
2019-05-22T05:06:46.720Z,25.48
2019-05-22T05:09:15.532Z,26.12
2019-05-22T05:11:43.542Z,25.55
2019-05-22T05:14:11.802Z,23.25
2019-05-22T05:16:39.837Z,25.75
2019-05-22T05:19:08.205Z,26.80
2019-05-22T05:21:37.659Z,25.40
2019-05-22T05:24:06.776Z,26.25
2019-05-22T05:26:36.913Z,24.20
2019-05-22T05:29:10.079Z,26.35
2019-05-22T05:31:40.701Z,26.87
2019-05-22T05:34:22.442Z,26.12
2019-05-22T05:36:54.019Z,25.55
2019-05-22T05:40:08.480Z,24.90
2019-05-22T05:42:40.661Z,25.20
2019-05-22T05:45:13.552Z,25.62
2019-05-22T05:47:42.913Z,26.05
2019-05-22T05:50:12.423Z,25.75
2019-05-22T05:52:42.167Z,24.40
2019-05-22T05:55:12.442Z,24.70
2019-05-22T05:58:31.649Z,24.80
2019-05-22T06:01:20.973Z,24.92
2019-05-22T06:03:50.749Z,25.30
2019-05-22T06:07:11.844Z,23.87
2019-05-22T06:09:41.516Z,24.67
2019-05-22T06:12:11.313Z,26.23
2019-05-22T06:14:41.359Z,25.05
2019-05-22T06:18:00.389Z,23.70
2019-05-22T06:20:30.000Z,23.95
2019-05-22T06:23:50.002Z,25.10
2019-05-22T06:26:52.765Z,23.42
2019-05-22T06:29:28.451Z,21.85
2019-05-22T06:32:46.072Z,22.40
2019-05-22T06:35:16.599Z,24.30
2019-05-22T06:37:59.126Z,23.62
2019-05-22T06:40:28.692Z,24.10
2019-05-22T06:43:50.570Z,23.45
2019-05-22T06:46:42.919Z,24.15
2019-05-22T06:49:43.550Z,25.52
2019-05-22T06:52:16.269Z,23.10
2019-05-22T06:54:44.763Z,23.80
2019-05-22T06:57:15.250Z,23.67
2019-05-22T06:59:46.199Z,25.12
2019-05-22T07:02:16.578Z,24.07
2019-05-22T07:04:45.662Z,24.70
2019-05-22T07:07:14.985Z,24.40
2019-05-22T07:09:44.942Z,23.50
2019-05-22T07:12:14.937Z,24.63
2019-05-22T07:15:37.453Z,24.80
2019-05-22T07:18:11.927Z,25.20
2019-05-22T07:20:41.428Z,24.77
2019-05-22T07:23:13.115Z,24.90
2019-05-22T07:25:43.896Z,24.40
2019-05-22T07:28:13.829Z,24.02
2019-05-22T07:30:43.614Z,25.75
2019-05-22T07:33:12.514Z,23.40
2019-05-22T07:36:04.635Z,24.35
2019-05-22T07:38:11.902Z,23.75
2019-05-22T07:40:40.690Z,21.27
2019-05-22T07:43:09.259Z,23.00
2019-05-22T07:45:37.263Z,22.50
2019-05-22T07:48:06.747Z,23.25
2019-05-22T07:50:37.677Z,22.22
2019-05-22T07:53:07.839Z,24.87
2019-05-22T07:55:36.141Z,24.27
2019-05-22T07:58:13.025Z,22.80
2019-05-22T08:00:47.023Z,21.73
2019-05-22T08:03:17.230Z,23.22
2019-05-22T08:05:53.108Z,22.52
2019-05-22T08:08:23.648Z,22.37
2019-05-22T08:10:54.635Z,20.70
2019-05-22T08:13:24.447Z,20.32
2019-05-22T08:15:53.508Z,21.52
2019-05-22T08:18:22.179Z,19.20
2019-05-22T08:20:51.481Z,18.27
2019-05-22T08:23:20.270Z,19.82
2019-05-22T08:25:48.605Z,20.62
2019-05-22T08:28:18.405Z,18.70
2019-05-22T08:30:48.580Z,17.92
2019-05-22T08:33:19.020Z,18.98
2019-05-22T08:35:48.483Z,18.23
2019-05-22T08:38:19.258Z,18.50
2019-05-22T08:40:50.426Z,17.77
2019-05-22T08:43:21.473Z,17.70
2019-05-22T08:45:49.566Z,19.12
2019-05-22T08:48:18.212Z,17.82
2019-05-22T08:50:46.944Z,17.02
2019-05-22T08:53:15.902Z,17.40
2019-05-22T08:55:46.109Z,16.87
2019-05-22T08:58:14.976Z,15.60
2019-05-22T09:00:44.150Z,14.63
2019-05-22T09:03:13.076Z,16.02
2019-05-22T09:05:41.795Z,16.00
2019-05-22T09:08:09.706Z,15.13
2019-05-22T09:10:37.754Z,14.70
2019-05-22T09:13:05.656Z,15.98
2019-05-22T09:15:34.391Z,14.45
2019-05-22T09:18:05.161Z,14.98
2019-05-22T09:20:48.989Z,14.00
2019-05-22T09:23:08.420Z,14.45
2019-05-22T09:25:36.774Z,15.18
2019-05-22T09:28:06.532Z,14.40
2019-05-22T09:30:34.785Z,15.32
2019-05-22T09:33:03.911Z,13.22
2019-05-22T09:35:32.195Z,13.65
2019-05-22T09:38:02.725Z,13.22
2019-05-22T09:40:31.738Z,12.03
2019-05-22T09:43:00.859Z,13.28
2019-05-22T09:45:28.722Z,12.82
2019-05-22T09:47:57.293Z,14.10
2019-05-22T09:50:28.516Z,12.78
2019-05-22T09:52:58.363Z,12.13
2019-05-22T09:55:26.495Z,12.03
2019-05-22T09:57:55.723Z,11.22
2019-05-22T10:00:24.429Z,11.60
2019-05-22T10:02:52.862Z,11.70
2019-05-22T10:05:21.182Z,11.48
2019-05-22T10:08:00.363Z,10.90
2019-05-22T10:10:19.815Z,11.80
2019-05-22T10:12:48.219Z,10.35
2019-05-22T10:15:16.549Z,11.03
2019-05-22T10:17:48.509Z,11.15
2019-05-22T10:20:17.293Z,11.22
2019-05-22T10:22:46.218Z,10.13
2019-05-22T10:25:16.675Z,11.50
2019-05-22T10:27:46.377Z,12.20
2019-05-22T10:30:18.667Z,12.05
2019-05-22T10:32:48.458Z,11.00
2019-05-22T10:35:18.487Z,12.50
2019-05-22T10:37:47.328Z,10.40
2019-05-22T10:40:18.291Z,11.20
2019-05-22T10:42:47.189Z,12.25
2019-05-22T10:49:13.601Z,11.25
2019-05-22T10:55:38.404Z,11.45
2019-05-22T10:55:51.083Z,10.48
2019-05-22T11:06:25.424Z,10.85
2019-05-22T11:08:53.861Z,11.78
2019-05-22T11:11:22.725Z,10.98
2019-05-22T11:14:01.376Z,10.68
2019-05-22T11:16:21.462Z,11.65
2019-05-22T11:18:50.906Z,11.08
2019-05-22T11:21:19.224Z,11.05
2019-05-22T11:23:52.635Z,10.45
2019-05-22T11:26:17.686Z,10.40
2019-05-22T11:28:45.616Z,10.70
2019-05-22T11:31:14.265Z,9.73
2019-05-22T11:33:42.295Z,9.45
2019-05-22T11:36:12.457Z,9.45
2019-05-22T11:38:41.699Z,7.83
2019-05-22T11:41:10.851Z,8.78
2019-05-22T11:43:39.302Z,8.80
2019-05-22T11:46:08.133Z,9.65
2019-05-22T11:48:36.067Z,9.08
2019-05-22T11:51:05.582Z,8.93
2019-05-22T11:53:34.526Z,8.00
2019-05-22T11:56:02.606Z,7.40
2019-05-22T11:58:32.616Z,6.28
2019-05-22T12:01:01.075Z,6.72
2019-05-22T12:03:31.107Z,8.55
2019-05-22T12:06:00.834Z,10.80
2019-05-22T12:08:29.094Z,9.60
2019-05-22T12:10:59.527Z,7.87
2019-05-22T12:13:29.029Z,7.33
2019-05-22T12:15:57.567Z,7.10
2019-05-22T12:18:26.500Z,7.35
2019-05-22T12:20:57.695Z,8.00
2019-05-22T12:23:29.588Z,7.87
2019-05-22T12:26:00.912Z,7.58
2019-05-22T12:28:29.132Z,7.35
2019-05-22T12:30:58.233Z,6.37
2019-05-22T12:33:26.144Z,6.90
2019-05-22T12:35:55.122Z,7.40
2019-05-22T12:38:26.701Z,7.97
2019-05-22T12:40:53.735Z,7.60
2019-05-22T12:43:23.513Z,7.15
2019-05-22T12:45:52.966Z,7.70
2019-05-22T12:48:21.514Z,7.90
2019-05-22T12:50:50.110Z,8.55
2019-05-22T12:53:20.968Z,8.08
2019-05-22T12:55:49.081Z,8.50
2019-05-22T12:58:18.356Z,8.48
2019-05-22T13:00:46.511Z,7.53
2019-05-22T13:03:15.024Z,7.33
2019-05-22T13:05:44.646Z,7.90
2019-05-22T13:08:13.821Z,7.75
2019-05-22T13:10:42.446Z,8.53
2019-05-22T13:13:10.979Z,7.90
2019-05-22T13:15:39.338Z,8.45
2019-05-22T13:18:09.402Z,8.20
2019-05-22T13:20:44.513Z,8.20
2019-05-22T13:23:19.725Z,8.35
2019-05-22T13:25:49.804Z,7.65
2019-05-22T13:28:19.215Z,8.20
2019-05-22T13:30:52.124Z,7.42
2019-05-22T13:33:24.238Z,7.60
2019-05-22T13:35:55.321Z,7.08
2019-05-22T13:38:23.576Z,8.73
2019-05-22T13:40:53.350Z,7.33
2019-05-22T13:43:21.936Z,7.47
2019-05-22T13:45:50.687Z,8.05
2019-05-22T13:48:18.690Z,7.60
2019-05-22T13:50:48.547Z,7.10
2019-05-22T13:53:17.359Z,6.95
2019-05-22T13:55:47.464Z,6.72
2019-05-22T13:58:17.997Z,7.05
2019-05-22T14:00:48.605Z,7.10
2019-05-22T14:03:17.880Z,6.70
2019-05-22T14:05:48.041Z,6.85
2019-05-22T14:08:18.083Z,5.53
2019-05-22T14:10:50.094Z,6.70
2019-05-22T14:13:19.391Z,6.00
2019-05-22T14:15:56.185Z,6.17
2019-05-22T14:18:19.041Z,5.95
2019-05-22T14:20:48.251Z,6.10
2019-05-22T14:23:16.679Z,5.37
2019-05-22T14:25:46.529Z,5.80
2019-05-22T14:28:17.314Z,5.40
2019-05-22T14:30:47.030Z,5.72
2019-05-22T14:33:15.739Z,5.55
2019-05-22T14:35:48.892Z,5.15
2019-05-22T14:38:16.089Z,5.35
2019-05-22T14:40:44.797Z,5.70
2019-05-22T14:43:13.523Z,5.83
2019-05-22T14:45:42.996Z,5.60
2019-05-22T14:48:13.392Z,5.05
2019-05-22T14:50:43.505Z,5.58
2019-05-22T14:53:13.212Z,5.22
2019-05-22T14:55:44.070Z,5.85
2019-05-22T14:58:15.247Z,5.58
2019-05-22T15:00:44.590Z,5.22
2019-05-22T15:03:13.928Z,4.60
2019-05-22T15:05:45.818Z,5.17
2019-05-22T15:08:14.351Z,5.70
2019-05-22T15:10:43.101Z,5.20
2019-05-22T15:13:12.216Z,5.67
2019-05-22T15:15:41.106Z,4.87
2019-05-22T15:18:10.332Z,4.53
2019-05-22T15:21:02.061Z,6.00
2019-05-22T15:23:32.983Z,4.75
2019-05-22T15:26:02.666Z,4.92
2019-05-22T15:28:32.504Z,5.42
2019-05-22T15:31:02.314Z,5.00
2019-05-22T15:33:32.486Z,4.92
2019-05-22T15:36:06.823Z,4.72
2019-05-22T15:38:40.443Z,6.33
2019-05-22T15:41:10.211Z,7.97
2019-05-22T15:43:41.809Z,5.92
2019-05-22T15:46:14.158Z,6.53
2019-05-22T15:48:44.728Z,7.33
2019-05-22T15:51:13.294Z,6.83
2019-05-22T15:53:45.317Z,11.55
2019-05-22T15:56:14.079Z,8.80
2019-05-22T15:58:50.903Z,6.58
2019-05-22T16:01:24.122Z,18.50
2019-05-22T16:03:54.564Z,8.40
2019-05-22T16:06:26.636Z,13.28
2019-05-22T16:09:01.042Z,7.28
2019-05-22T16:11:33.569Z,6.83
2019-05-22T16:14:02.854Z,7.97
2019-05-22T16:16:34.211Z,8.43
2019-05-22T16:19:05.126Z,10.15
2019-05-22T16:21:37.786Z,4.65
2019-05-22T16:24:10.144Z,7.37
2019-05-22T16:26:39.879Z,5.70
2019-05-22T16:29:08.390Z,5.60
2019-05-22T16:31:39.086Z,7.47
2019-05-22T16:34:09.320Z,5.67
2019-05-22T16:36:38.020Z,5.80
2019-05-22T16:39:10.489Z,6.67
2019-05-22T16:41:40.565Z,4.83
2019-05-22T16:44:08.970Z,5.28
2019-05-22T16:46:39.818Z,4.78
2019-05-22T16:49:10.238Z,4.95
2019-05-22T16:51:39.305Z,4.45
2019-05-22T16:54:12.337Z,4.50
2019-05-22T16:56:41.309Z,4.78
2019-05-22T16:59:10.675Z,4.58
2019-05-22T17:01:57.815Z,4.78
2019-05-22T17:04:11.537Z,4.47
2019-05-22T17:06:43.144Z,4.40
2019-05-22T17:09:21.007Z,4.87
2019-05-22T17:12:07.807Z,4.65
2019-05-22T17:14:52.686Z,4.72
2019-05-22T17:17:21.638Z,4.95
2019-05-22T17:20:05.181Z,5.35
2019-05-22T17:22:41.066Z,4.90
2019-05-22T17:25:31.012Z,5.00
2019-05-22T17:27:59.804Z,4.80
2019-05-22T17:30:31.813Z,5.55
2019-05-22T17:33:01.879Z,5.60
2019-05-22T17:35:34.766Z,4.70
2019-05-22T17:38:05.786Z,5.05
2019-05-22T17:40:36.028Z,6.10
2019-05-22T17:43:12.492Z,5.20
2019-05-22T17:45:48.532Z,5.28
2019-05-22T17:48:23.352Z,5.12
2019-05-22T17:50:53.721Z,5.45
2019-05-22T17:54:14.475Z,5.17
2019-05-22T18:00:34.443Z,6.72
2019-05-22T18:04:13.006Z,5.60
2019-05-22T18:08:21.250Z,6.60
2019-05-22T18:15:00.018Z,5.45
2019-05-22T18:18:03.858Z,6.30
2019-05-22T18:23:54.107Z,5.10
2019-05-22T18:26:23.367Z,5.60
2019-05-22T18:29:01.811Z,6.00
2019-05-22T18:31:32.732Z,6.15
2019-05-22T18:34:09.709Z,6.00
2019-05-22T18:36:37.842Z,6.00
2019-05-22T18:39:25.939Z,5.65
2019-05-22T18:41:58.599Z,5.47
2019-05-22T18:44:46.776Z,6.08
2019-05-22T18:47:18.317Z,6.10
2019-05-22T18:50:12.892Z,6.33
2019-05-22T18:52:46.929Z,6.42
2019-05-22T18:55:17.024Z,6.40
2019-05-22T18:57:57.418Z,6.03
2019-05-22T19:00:31.186Z,6.47
2019-05-22T19:03:00.296Z,6.37
2019-05-22T19:05:31.104Z,5.40
2019-05-22T19:08:03.049Z,5.60
2019-05-22T19:10:42.110Z,6.95
2019-05-22T19:13:14.251Z,6.20
2019-05-22T19:15:45.091Z,5.67
2019-05-22T19:18:37.542Z,6.15
2019-05-22T19:21:16.003Z,5.60
2019-05-22T19:30:46.763Z,5.75
2019-05-22T19:33:15.237Z,6.72
2019-05-22T19:36:06.967Z,6.80
2019-05-22T19:38:36.300Z,7.05
2019-05-22T19:41:07.751Z,7.60
2019-05-22T19:44:26.773Z,7.83
2019-05-22T19:46:53.750Z,7.85
2019-05-22T19:49:23.003Z,8.23
2019-05-22T19:51:51.383Z,8.35
2019-05-22T19:54:21.009Z,8.80
2019-05-22T19:56:49.782Z,9.28
2019-05-22T19:59:18.349Z,9.15
2019-05-22T20:01:46.720Z,8.28
2019-05-22T20:04:15.236Z,8.55
2019-05-22T20:06:43.326Z,7.67
2019-05-22T20:09:12.671Z,8.05
2019-05-22T20:11:41.232Z,8.30
2019-05-22T20:14:09.866Z,8.30
2019-05-22T20:16:38.927Z,8.90
2019-05-22T20:19:07.631Z,9.48
2019-05-22T20:21:36.909Z,8.85
2019-05-22T20:24:05.855Z,8.30
2019-05-22T20:26:33.886Z,8.50
2019-05-22T20:29:03.317Z,10.15
2019-05-22T20:31:33.902Z,10.10
2019-05-22T20:34:02.350Z,8.25
2019-05-22T20:36:31.380Z,9.30
2019-05-22T20:39:00.123Z,9.08
2019-05-22T20:41:29.568Z,8.25
2019-05-22T20:43:59.082Z,9.00
2019-05-22T20:46:30.140Z,7.65
2019-05-22T20:49:00.201Z,7.97
2019-05-22T20:51:28.567Z,7.58
2019-05-22T20:53:57.889Z,7.65
2019-05-22T20:56:29.001Z,7.28
2019-05-22T20:59:00.760Z,8.20
2019-05-22T21:01:33.082Z,8.60
2019-05-22T21:04:03.401Z,8.45
2019-05-22T21:06:39.220Z,9.25
2019-05-22T21:09:09.369Z,9.68
2019-05-22T21:11:39.704Z,9.13
2019-05-22T21:14:08.491Z,8.43
2019-05-22T21:16:37.640Z,9.23
2019-05-22T21:19:06.517Z,8.75
2019-05-22T21:21:35.992Z,9.65
2019-05-22T21:24:11.580Z,9.70
2019-05-22T21:26:34.716Z,10.03
2019-05-22T21:29:04.511Z,9.40
2019-05-22T21:31:33.964Z,10.10
2019-05-22T21:34:03.608Z,8.95
2019-05-22T21:36:33.209Z,8.98
2019-05-22T21:39:01.403Z,10.60
2019-05-22T21:41:33.895Z,9.80
2019-05-22T21:44:02.341Z,9.45
2019-05-22T21:46:30.664Z,9.15
2019-05-22T21:48:59.354Z,10.20
2019-05-22T21:51:29.109Z,10.13
2019-05-22T21:53:57.689Z,9.43
2019-05-22T21:56:25.905Z,10.38
2019-05-22T21:58:54.048Z,9.60
2019-05-22T22:01:30.382Z,10.48
2019-05-22T22:04:09.128Z,9.23
2019-05-22T22:06:38.848Z,11.45
2019-05-22T22:09:08.417Z,10.38
2019-05-22T22:11:37.890Z,10.98
2019-05-22T22:14:07.231Z,9.70
2019-05-22T22:16:35.667Z,9.73
2019-05-22T22:19:04.379Z,9.98
2019-05-22T22:21:33.798Z,10.48
2019-05-22T22:24:02.115Z,9.88
2019-05-22T22:26:31.273Z,9.90
2019-05-22T22:29:00.596Z,10.23
2019-05-22T22:31:31.179Z,10.00
2019-05-22T22:34:13.142Z,10.45
2019-05-22T22:36:42.933Z,11.20
2019-05-22T22:39:14.406Z,10.20
2019-05-22T22:41:45.572Z,11.00
2019-05-22T22:44:15.581Z,11.10
2019-05-22T22:46:51.269Z,11.12
2019-05-22T22:49:22.867Z,11.20
2019-05-22T22:51:52.496Z,10.40
2019-05-22T22:54:22.827Z,11.20
2019-05-22T22:56:52.152Z,10.93
2019-05-22T22:59:20.498Z,11.18
2019-05-22T23:01:52.727Z,10.28
2019-05-22T23:04:26.042Z,11.20
2019-05-22T23:06:58.959Z,11.57
2019-05-22T23:09:29.399Z,11.15
2019-05-22T23:11:59.947Z,10.53
2019-05-22T23:14:30.555Z,11.22
2019-05-22T23:17:00.114Z,10.32
2019-05-22T23:19:31.512Z,11.28
2019-05-22T23:22:07.603Z,11.33
2019-05-22T23:24:39.118Z,11.48
2019-05-22T23:27:08.728Z,10.58
2019-05-22T23:29:37.924Z,12.45
2019-05-22T23:32:08.804Z,11.83
2019-05-22T23:34:38.295Z,11.65
2019-05-22T23:37:10.070Z,11.83
2019-05-22T23:39:39.478Z,12.28
2019-05-22T23:42:12.482Z,11.28
2019-05-22T23:44:43.612Z,11.85
2019-05-22T23:47:13.486Z,10.45
2019-05-22T23:49:42.965Z,13.03
2019-05-22T23:52:13.808Z,12.90
2019-05-22T23:54:43.950Z,11.25
2019-05-22T23:57:14.005Z,10.80
2019-05-22T23:59:45.333Z,13.00
